Time;durP1;ratioP1;P1;durP2;ratioP2;P2;SDS_P1;SDS_P2;PMS_P1;PMS_P2;Temp;Humidity;BMP_temperature;BMP_pressure;BME280_temperature;BME280_humidity;BME280_pressure;Samples;Min_cycle;Max_cycle;Signal;HPM_P1;HPM_P2
2023/08/09 00:02:17;;;;;;;3.85;1.25;;;;;;;16.11;62.38;95479.53;5052877;28;20029;-80
2023/08/09 00:04:43;;;;;;;4.53;1.02;;;;;;;16.08;62.24;95458.75;5052826;28;20021;-80
2023/08/09 00:07:08;;;;;;;2.92;1.35;;;;;;;16.37;61.92;95482.47;5052766;28;20040;-80
2023/08/09 00:09:35;;;;;;;2.15;0.80;;;;;;;16.45;61.77;95481.75;5035259;28;20088;-80
2023/08/09 00:12:00;;;;;;;2.97;1.00;;;;;;;16.29;61.98;95489.31;5051231;28;20039;-80
2023/08/09 00:14:26;;;;;;;1.50;1.30;;;;;;;16.39;61.87;95482.97;5051182;28;20033;-80
2023/08/09 00:16:51;;;;;;;3.65;1.27;;;;;;;15.47;62.13;95358.41;5052621;28;20086;-80
2023/08/09 00:19:17;;;;;;;4.97;1.10;;;;;;;16.06;61.90;95431.50;5051470;28;20049;-80
2023/08/09 00:21:42;;;;;;;2.60;1.17;;;;;;;16.59;61.45;95499.34;5050761;28;20128;-80
2023/08/09 00:24:08;;;;;;;1.95;0.77;;;;;;;15.91;61.47;95395.19;5052808;28;20033;-80
2023/08/09 00:26:33;;;;;;;2.53;1.25;;;;;;;16.48;61.69;95503.31;5050211;28;20033;-80
2023/08/09 00:28:59;;;;;;;3.97;0.90;;;;;;;16.28;61.88;95457.50;5050809;28;20404;-80
2023/08/09 00:31:24;;;;;;;1.40;0.90;;;;;;;16.22;62.03;95486.28;5051965;28;20105;-80
2023/08/09 00:33:50;;;;;;;2.17;1.00;;;;;;;15.54;61.98;95364.19;5052880;28;20025;-80
2023/08/09 00:36:18;;;;;;;1.88;1.20;;;;;;;16.36;62.09;95479.00;5053396;28;20084;-80
2023/08/09 00:38:43;;;;;;;3.35;0.98;;;;;;;15.59;61.68;95331.97;5052064;28;20047;-80
2023/08/09 00:41:09;;;;;;;1.80;1.13;;;;;;;16.71;61.31;95498.03;5053734;28;20037;-80
2023/08/09 00:43:34;;;;;;;2.22;1.15;;;;;;;16.54;61.52;95470.00;5053209;28;20033;-80
2023/08/09 00:46:00;;;;;;;2.72;1.08;;;;;;;16.53;61.06;95438.97;5053569;28;20130;-80
2023/08/09 00:48:26;;;;;;;3.17;1.08;;;;;;;16.78;61.11;95487.69;5052687;28;20124;-80
2023/08/09 00:50:52;;;;;;;2.65;1.25;;;;;;;16.74;60.85;95473.31;5051850;28;20110;-80
2023/08/09 00:53:18;;;;;;;4.03;1.48;;;;;;;16.48;61.11;95443.63;5052599;28;20036;-80
2023/08/09 00:55:44;;;;;;;2.53;1.48;;;;;;;16.54;61.12;95458.50;5051475;28;20029;-80
2023/08/09 00:58:09;;;;;;;2.17;1.20;;;;;;;16.59;61.05;95456.50;5051355;28;20139;-80
2023/08/09 01:00:35;;;;;;;2.55;1.00;;;;;;;16.47;60.78;95434.06;5050984;28;20527;-80
2023/08/09 01:03:01;;;;;;;2.05;1.30;;;;;;;16.03;61.71;95408.00;5050633;28;20064;-81
2023/08/09 01:05:33;;;;;;;1.83;1.00;;;;;;;16.67;61.55;95489.03;5050444;28;20024;-80
2023/08/09 01:08:13;;;;;;;1.45;1.15;;;;;;;16.53;61.73;95484.50;5050870;28;20230;-80
2023/08/09 01:10:46;;;;;;;4.88;1.10;;;;;;;16.38;62.18;95479.50;5052074;28;20055;-80
2023/08/09 01:13:14;;;;;;;3.30;1.67;;;;;;;16.27;62.37;95482.69;5050316;28;20473;-80
2023/08/09 01:15:42;;;;;;;1.55;0.82;;;;;;;15.82;62.56;95399.66;5050784;28;20036;-80
2023/08/09 01:18:08;;;;;;;3.60;1.15;;;;;;;16.25;62.55;95479.53;5050495;28;20072;-80
2023/08/09 01:20:35;;;;;;;1.90;1.10;;;;;;;16.10;62.97;95467.25;5051002;28;20570;-80
2023/08/09 01:23:14;;;;;;;1.52;1.10;;;;;;;15.46;63.47;95394.25;5052049;28;20025;-80
2023/08/09 01:25:40;;;;;;;4.15;1.20;;;;;;;15.99;63.50;95481.94;5050432;28;20384;-80
2023/08/09 01:28:05;;;;;;;2.97;1.20;;;;;;;16.04;63.57;95489.84;5050824;28;20035;-80
2023/08/09 01:30:31;;;;;;;4.00;1.20;;;;;;;15.80;63.59;95453.44;5050708;28;20126;-80
2023/08/09 01:32:57;;;;;;;2.58;1.15;;;;;;;16.02;63.31;95463.41;5051474;28;20039;-80
2023/08/09 01:35:25;;;;;;;1.25;1.13;;;;;;;16.02;63.51;95484.03;5051364;28;20040;-80
2023/08/09 01:38:08;;;;;;;2.47;1.30;;;;;;;15.75;63.71;95453.56;5053516;28;20036;-80
2023/08/09 01:40:34;;;;;;;1.52;1.30;;;;;;;15.70;63.92;95439.50;5050552;28;20491;-80
2023/08/09 01:43:00;;;;;;;3.28;1.48;;;;;;;16.06;63.66;95488.47;5050859;28;20491;-80
2023/08/09 01:45:28;;;;;;;6.53;1.65;;;;;;;15.99;63.22;95466.69;5052006;28;20036;-80
2023/08/09 01:47:54;;;;;;;2.15;1.23;;;;;;;16.06;62.88;95459.06;5056198;28;20115;-80
2023/08/09 01:50:21;;;;;;;1.92;1.20;;;;;;;15.90;62.64;95431.03;5056306;28;20037;-80
2023/08/09 01:52:47;;;;;;;4.35;1.88;;;;;;;15.85;62.89;95419.66;5056527;28;20116;-80
2023/08/09 01:55:14;;;;;;;1.85;1.13;;;;;;;15.91;63.05;95447.88;5055498;28;20427;-80
2023/08/09 01:57:40;;;;;;;2.10;1.33;;;;;;;15.72;62.96;95419.38;5054782;28;20029;-80
2023/08/09 02:00:08;;;;;;;2.30;1.42;;;;;;;16.35;62.79;95492.66;5055655;28;20462;-80
2023/08/09 02:02:33;;;;;;;5.32;1.38;;;;;;;15.78;62.17;95398.69;5054439;28;20033;-80
2023/08/09 02:04:59;;;;;;;3.08;1.45;;;;;;;15.96;62.64;95440.53;5054101;28;20043;-80
2023/08/09 02:07:24;;;;;;;1.48;1.00;;;;;;;15.11;62.62;95315.59;5053935;28;20111;-80
2023/08/09 02:09:50;;;;;;;7.30;1.48;;;;;;;15.97;62.32;95435.97;5055683;28;20491;-80
2023/08/09 02:12:15;;;;;;;7.45;1.60;;;;;;;16.38;62.14;95497.44;5056312;28;20470;-80
2023/08/09 02:14:41;;;;;;;3.65;1.23;;;;;;;16.15;61.50;95451.09;5056638;28;20037;-81
2023/08/09 02:17:09;;;;;;;2.85;1.10;;;;;;;15.75;61.86;95397.41;5054147;28;20044;-80
2023/08/09 02:19:35;;;;;;;1.88;1.30;;;;;;;16.45;61.74;95484.41;5054046;28;20037;-80
2023/08/09 02:22:00;;;;;;;2.33;1.10;;;;;;;16.26;61.90;95478.41;5054100;28;20036;-81
2023/08/09 02:24:26;;;;;;;5.05;1.30;;;;;;;16.30;62.16;95487.44;5054506;28;20029;-80
2023/08/09 02:26:51;;;;;;;3.22;1.50;;;;;;;15.85;62.05;95414.31;5054089;28;20047;-80
2023/08/09 02:29:17;;;;;;;2.90;1.33;;;;;;;16.43;61.85;95491.94;5055006;28;20090;-80
2023/08/09 02:31:43;;;;;;;8.30;1.48;;;;;;;16.05;61.91;95441.41;5052913;28;20036;-80
2023/08/09 02:34:08;;;;;;;4.03;1.30;;;;;;;15.83;61.58;95387.88;5054019;28;20103;-81
2023/08/09 02:36:34;;;;;;;1.50;1.02;;;;;;;15.49;61.41;95356.22;5052513;28;20033;-80
2023/08/09 02:38:59;;;;;;;3.58;1.50;;;;;;;16.19;61.33;95478.84;5054531;28;20033;-80
2023/08/09 02:41:25;;;;;;;2.65;1.40;;;;;;;16.05;61.93;95460.13;5052899;28;20526;-80
2023/08/09 02:43:51;;;;;;;5.80;1.55;;;;;;;16.45;61.72;95505.84;5054334;28;20040;-80
2023/08/09 02:46:16;;;;;;;4.47;1.45;;;;;;;16.44;61.50;95517.63;5052737;28;20415;-80
2023/08/09 02:48:42;;;;;;;5.43;1.25;;;;;;;16.18;61.80;95475.34;5054030;28;20041;-80
2023/08/09 02:51:08;;;;;;;6.43;1.50;;;;;;;16.53;61.21;95508.59;5054473;28;20052;-80
2023/08/09 02:53:37;;;;;;;5.43;1.48;;;;;;;16.29;61.22;95459.88;5053653;28;20056;-81
2023/08/09 02:56:03;;;;;;;5.38;2.03;;;;;;;16.29;61.02;95469.78;5053490;28;20033;-80
2023/08/09 02:58:29;;;;;;;2.53;1.45;;;;;;;16.51;61.37;95510.75;5051198;28;20097;-81
2023/08/09 03:00:54;;;;;;;3.30;1.58;;;;;;;16.24;61.71;95478.75;5053102;28;20040;-81
2023/08/09 03:03:20;;;;;;;3.78;1.50;;;;;;;16.17;62.07;95462.31;5052122;28;20025;-80
2023/08/09 03:05:45;;;;;;;4.72;1.23;;;;;;;16.07;61.51;95443.78;5052819;28;20519;-81
2023/08/09 03:08:10;;;;;;;4.72;1.35;;;;;;;16.43;62.07;95519.50;5052620;28;20048;-80
2023/08/09 03:10:36;;;;;;;6.57;1.30;;;;;;;16.32;62.47;95515.50;5052826;28;20094;-81
2023/08/09 03:13:02;;;;;;;3.53;1.38;;;;;;;16.00;62.73;95489.69;5052086;28;20087;-80
2023/08/09 03:15:27;;;;;;;4.10;1.63;;;;;;;16.02;62.32;95479.44;5052890;28;20025;-80
2023/08/09 03:17:53;;;;;;;4.43;1.85;;;;;;;15.96;62.32;95477.19;5053270;28;20120;-80
2023/08/09 03:20:18;;;;;;;5.03;1.60;;;;;;;15.60;63.37;95451.19;5053101;28;20059;-80
2023/08/09 03:22:44;;;;;;;3.03;1.77;;;;;;;15.70;63.73;95472.38;5052297;28;20029;-81
2023/08/09 03:25:12;;;;;;;4.95;1.60;;;;;;;15.76;64.69;95521.19;5052045;28;20352;-80
2023/08/09 03:27:38;;;;;;;2.85;1.58;;;;;;;15.92;64.31;95519.81;5053646;28;20033;-80
2023/08/09 03:30:05;;;;;;;5.15;1.55;;;;;;;15.75;64.05;95492.88;5051943;28;20044;-80
2023/08/09 03:32:31;;;;;;;2.78;1.33;;;;;;;15.72;64.70;95496.91;5051683;28;20060;-81
2023/08/09 03:34:56;;;;;;;7.43;2.00;;;;;;;15.73;64.60;95513.75;5051713;28;20025;-82
2023/08/09 03:37:22;;;;;;;2.70;1.90;;;;;;;15.31;64.59;95451.47;5051788;28;20044;-82
2023/08/09 03:39:47;;;;;;;7.57;2.40;;;;;;;15.32;64.46;95449.59;5053314;28;20036;-82
2023/08/09 03:42:13;;;;;;;5.57;2.58;;;;;;;15.86;64.69;95531.69;5053698;28;20499;-81
2023/08/09 03:44:38;;;;;;;4.88;2.03;;;;;;;15.51;64.47;95489.56;5050742;28;20028;-82
2023/08/09 03:47:04;;;;;;;4.88;2.25;;;;;;;15.30;64.53;95473.91;5051090;28;20044;-82
2023/08/09 03:49:29;;;;;;;10.48;2.80;;;;;;;15.83;64.59;95551.81;5052864;28;20045;-82
2023/08/09 03:51:55;;;;;;;3.55;2.55;;;;;;;15.36;64.12;95466.59;5050945;28;20040;-82
2023/08/09 03:54:20;;;;;;;6.07;2.63;;;;;;;15.62;64.38;95510.50;5052439;28;20041;-82
2023/08/09 03:56:46;;;;;;;3.50;2.63;;;;;;;15.68;64.41;95521.88;5052389;28;20037;-81
2023/08/09 03:59:11;;;;;;;11.18;3.10;;;;;;;15.49;64.05;95503.22;5051432;28;20094;-82
2023/08/09 04:01:37;;;;;;;9.27;2.67;;;;;;;15.71;64.65;95534.66;5052959;28;20115;-81
2023/08/09 04:04:03;;;;;;;6.47;2.95;;;;;;;15.78;64.31;95556.47;5053434;28;20139;-80
2023/08/09 04:06:29;;;;;;;7.35;3.28;;;;;;;15.53;64.13;95508.78;5053160;28;20036;-80
2023/08/09 04:08:54;;;;;;;6.07;2.70;;;;;;;15.43;64.56;95507.88;5052121;28;20060;-80
2023/08/09 04:11:20;;;;;;;11.80;2.92;;;;;;;15.53;63.97;95511.44;5052787;28;20102;-80
2023/08/09 04:13:45;;;;;;;4.22;2.63;;;;;;;15.47;63.78;95500.06;5054094;28;20039;-80
2023/08/09 04:16:11;;;;;;;9.43;2.83;;;;;;;15.27;63.88;95465.69;5054125;28;20098;-80
2023/08/09 04:18:38;;;;;;;5.78;2.70;;;;;;;15.85;63.75;95538.13;5054518;28;20387;-81
2023/08/09 04:21:03;;;;;;;5.93;2.50;;;;;;;15.56;63.97;95510.91;5052289;28;20387;-81
2023/08/09 04:23:28;;;;;;;5.15;3.13;;;;;;;15.43;64.15;95499.84;5054269;28;20044;-81
2023/08/09 04:25:54;;;;;;;5.35;2.90;;;;;;;15.54;63.84;95499.72;5054270;28;20017;-80
2023/08/09 04:28:19;;;;;;;7.43;2.88;;;;;;;15.79;63.64;95528.63;5052787;28;20030;-80
2023/08/09 04:30:46;;;;;;;4.90;2.80;;;;;;;15.53;63.96;95488.22;5054217;28;20021;-80
2023/08/09 04:33:12;;;;;;;7.50;2.88;;;;;;;15.97;63.62;95541.09;5053813;28;20029;-81
2023/08/09 04:35:38;;;;;;;4.50;2.97;;;;;;;15.96;63.19;95546.72;5052517;28;20392;-80
2023/08/09 04:38:04;;;;;;;8.70;2.78;;;;;;;16.00;63.21;95561.91;5052608;28;20039;-81
2023/08/09 04:40:30;;;;;;;6.10;2.75;;;;;;;16.11;63.18;95554.44;5053380;28;20489;-80
2023/08/09 04:42:56;;;;;;;4.70;2.47;;;;;;;15.88;63.34;95524.16;5053837;28;20136;-81
2023/08/09 04:45:22;;;;;;;8.10;2.92;;;;;;;15.47;63.09;95476.00;5051629;28;20049;-80
2023/08/09 04:47:48;;;;;;;9.35;3.00;;;;;;;16.10;62.82;95553.66;5052149;28;20031;-80
2023/08/09 04:50:13;;;;;;;5.55;3.17;;;;;;;16.11;62.96;95549.09;5053550;28;20041;-80
2023/08/09 04:52:39;;;;;;;8.80;2.97;;;;;;;15.99;62.92;95538.13;5053305;28;20025;-80
2023/08/09 04:55:05;;;;;;;5.88;3.50;;;;;;;16.26;62.48;95562.16;5051817;28;20112;-80
2023/08/09 04:57:31;;;;;;;8.52;3.45;;;;;;;15.87;62.13;95506.50;5051745;28;20051;-80
2023/08/09 04:59:57;;;;;;;7.53;3.58;;;;;;;16.23;61.87;95560.09;5053655;28;20104;-80
2023/08/09 05:02:23;;;;;;;4.10;3.03;;;;;;;16.02;61.73;95518.81;5051798;28;20082;-80
2023/08/09 05:04:49;;;;;;;5.93;3.10;;;;;;;15.83;60.97;95476.13;5052724;28;20455;-80
2023/08/09 05:07:14;;;;;;;6.75;2.85;;;;;;;16.32;60.63;95558.31;5051941;28;20429;-80
2023/08/09 05:09:40;;;;;;;9.82;2.53;;;;;;;16.04;60.84;95504.03;5052834;28;20132;-80
2023/08/09 05:12:06;;;;;;;3.88;2.75;;;;;;;16.14;60.55;95532.47;5051851;28;20041;-80
2023/08/09 05:14:31;;;;;;;6.55;2.80;;;;;;;15.78;60.27;95479.72;5051079;28;20079;-80
2023/08/09 05:16:57;;;;;;;6.13;2.72;;;;;;;16.35;60.42;95554.22;5051120;28;20048;-81
2023/08/09 05:19:22;;;;;;;3.65;2.70;;;;;;;16.36;60.28;95545.09;5050958;28;20491;-80
2023/08/09 05:21:48;;;;;;;7.80;2.63;;;;;;;16.57;60.40;95567.66;5054372;28;20403;-80
2023/08/09 05:24:14;;;;;;;3.50;2.70;;;;;;;16.18;60.22;95525.41;5054980;28;20495;-80
2023/08/09 05:26:40;;;;;;;4.35;2.75;;;;;;;15.96;60.06;95496.72;5055405;28;20052;-80
2023/08/09 05:29:06;;;;;;;3.75;2.90;;;;;;;16.49;59.98;95582.56;5055752;28;20525;-80
2023/08/09 05:31:31;;;;;;;4.90;2.97;;;;;;;16.41;60.18;95569.06;5055957;28;20033;-80
2023/08/09 05:33:57;;;;;;;6.47;3.20;;;;;;;16.23;60.69;95551.28;5056434;28;20109;-80
2023/08/09 05:36:23;;;;;;;8.43;3.38;;;;;;;16.38;60.84;95575.84;5054823;28;20033;-80
2023/08/09 05:38:49;;;;;;;7.60;3.38;;;;;;;16.43;60.97;95582.97;5054781;28;20510;-80
2023/08/09 05:41:14;;;;;;;6.40;3.05;;;;;;;16.36;60.56;95551.25;5054801;28;20029;-80
2023/08/09 05:43:39;;;;;;;7.07;3.13;;;;;;;16.00;61.11;95502.25;5056610;28;20041;-81
2023/08/09 05:46:05;;;;;;;5.25;3.10;;;;;;;16.30;61.28;95557.81;5056740;28;20032;-80
2023/08/09 05:48:30;;;;;;;9.48;3.42;;;;;;;16.37;61.33;95541.34;5056474;28;20029;-80
2023/08/09 05:50:56;;;;;;;6.88;3.75;;;;;;;16.49;61.15;95560.34;5056145;28;20037;-80
2023/08/09 05:53:21;;;;;;;8.85;3.30;;;;;;;16.11;60.97;95500.94;5053287;28;20052;-81
2023/08/09 05:55:48;;;;;;;9.35;4.00;;;;;;;16.33;61.07;95535.00;5055209;28;20036;-81
2023/08/09 05:58:15;;;;;;;4.78;3.65;;;;;;;16.17;61.30;95507.78;5055050;28;20040;-81
2023/08/09 06:00:40;;;;;;;5.97;3.35;;;;;;;16.71;61.16;95576.47;5053363;28;20093;-81
2023/08/09 06:03:06;;;;;;;7.78;3.40;;;;;;;16.84;61.04;95575.66;5053523;28;20576;-81
2023/08/09 06:05:32;;;;;;;5.38;4.60;;;;;;;16.73;61.95;95582.34;5053202;28;20100;-81
2023/08/09 06:07:58;;;;;;;9.00;4.43;;;;;;;16.86;60.64;95576.13;5054750;28;20084;-80
2023/08/09 06:10:25;;;;;;;7.22;4.05;;;;;;;16.41;60.58;95499.47;5052879;28;20032;-81
2023/08/09 06:12:50;;;;;;;6.00;3.65;;;;;;;16.53;60.77;95542.59;5055050;28;20056;-81
2023/08/09 06:15:16;;;;;;;10.15;4.55;;;;;;;16.80;60.54;95558.59;5054824;28;20037;-81
2023/08/09 06:17:42;;;;;;;15.65;5.50;;;;;;;17.02;60.29;95563.16;5054593;28;20099;-81
2023/08/09 06:20:08;;;;;;;10.15;4.43;;;;;;;17.11;60.27;95564.03;5053452;28;20111;-81
2023/08/09 06:22:34;;;;;;;12.18;4.40;;;;;;;17.06;59.98;95536.56;5055018;28;20040;-82
2023/08/09 06:24:59;;;;;;;9.90;4.65;;;;;;;17.30;59.85;95563.84;5053948;28;20093;-82
2023/08/09 06:27:25;;;;;;;11.55;4.30;;;;;;;17.06;59.68;95521.28;5055364;28;20032;-82
2023/08/09 06:29:50;;;;;;;9.02;4.47;;;;;;;17.19;59.42;95524.97;5054290;28;20526;-82
2023/08/09 06:32:15;;;;;;;9.57;4.75;;;;;;;16.76;59.61;95445.16;5054765;28;20033;-82
2023/08/09 06:34:42;;;;;;;13.88;6.25;;;;;;;16.84;60.24;95486.47;5055172;28;20113;-82
2023/08/09 06:37:08;;;;;;;10.57;4.32;;;;;;;17.41;60.18;95554.44;5055175;28;20048;-82
2023/08/09 06:39:36;;;;;;;8.48;4.13;;;;;;;17.24;59.31;95506.13;5053556;28;20033;-82
2023/08/09 06:42:01;;;;;;;11.38;4.80;;;;;;;17.35;59.05;95520.81;5053718;28;20040;-82
2023/08/09 06:44:27;;;;;;;9.07;4.45;;;;;;;17.43;59.12;95511.25;5052850;28;20024;-82
2023/08/09 06:46:53;;;;;;;11.10;4.63;;;;;;;17.07;58.90;95445.16;5055065;28;20416;-82
2023/08/09 06:49:21;;;;;;;9.43;3.90;;;;;;;17.62;58.87;95509.94;5053977;28;20592;-83
2023/08/09 06:51:47;;;;;;;10.38;4.00;;;;;;;17.76;58.54;95550.09;5055022;28;20087;-82
2023/08/09 06:54:13;;;;;;;10.75;4.55;;;;;;;17.86;58.56;95557.84;5054931;28;20047;-82
2023/08/09 06:56:38;;;;;;;14.15;4.57;;;;;;;17.81;58.37;95536.53;5054629;28;20032;-82
2023/08/09 06:59:04;;;;;;;11.32;5.53;;;;;;;17.75;58.44;95537.78;5053132;28;20025;-82
2023/08/09 07:01:30;;;;;;;14.10;4.82;;;;;;;17.69;58.29;95499.56;5053329;28;20098;-82
2023/08/09 07:03:56;;;;;;;8.52;5.13;;;;;;;17.97;58.35;95539.56;5054274;28;20123;-82
2023/08/09 07:06:22;;;;;;;10.23;4.80;;;;;;;17.69;58.63;95514.88;5052932;28;20104;-82
2023/08/09 07:08:48;;;;;;;11.50;4.93;;;;;;;17.54;58.44;95485.75;5052827;28;20432;-82
2023/08/09 07:11:14;;;;;;;8.05;5.93;;;;;;;17.34;57.73;95428.88;5054703;28;20044;-81
2023/08/09 07:13:40;;;;;;;12.70;5.05;;;;;;;18.07;57.68;95526.69;5054034;28;20041;-80
2023/08/09 07:16:06;;;;;;;12.85;5.85;;;;;;;18.10;58.16;95527.94;5051975;28;20466;-81
2023/08/09 07:18:31;;;;;;;12.30;5.35;;;;;;;17.89;58.85;95489.34;5052672;28;20124;-81
2023/08/09 07:20:57;;;;;;;9.45;4.82;;;;;;;18.09;57.20;95513.72;5055249;28;20073;-80
2023/08/09 07:23:23;;;;;;;9.25;4.43;;;;;;;18.20;56.92;95518.78;5053101;28;20029;-80
2023/08/09 07:25:48;;;;;;;10.55;4.43;;;;;;;18.15;57.19;95498.28;5052601;28;20111;-80
2023/08/09 07:28:14;;;;;;;9.75;4.47;;;;;;;18.07;56.33;95470.31;5053186;28;20127;-81
2023/08/09 07:30:39;;;;;;;8.85;4.60;;;;;;;18.37;56.08;95502.72;5054095;28;20033;-80
2023/08/09 07:33:05;;;;;;;6.55;3.33;;;;;;;18.26;56.42;95472.69;5052116;28;20075;-80
2023/08/09 07:35:30;;;;;;;4.53;3.30;;;;;;;18.38;56.47;95483.63;5052190;28;20043;-81
2023/08/09 07:37:56;;;;;;;8.25;2.72;;;;;;;18.60;56.27;95516.81;5053355;28;20115;-80
2023/08/09 07:40:21;;;;;;;6.60;3.17;;;;;;;18.29;55.57;95457.84;5051703;28;20128;-81
2023/08/09 07:42:47;;;;;;;12.05;2.88;;;;;;;18.43;55.87;95483.44;5053024;28;20449;-82
2023/08/09 07:45:14;;;;;;;4.88;2.78;;;;;;;18.56;55.82;95489.78;5051174;28;20086;-82
2023/08/09 07:47:40;;;;;;;9.55;3.97;;;;;;;18.90;55.39;95505.13;5053387;28;20037;-82
2023/08/09 07:50:07;;;;;;;7.18;3.13;;;;;;;18.86;54.86;95510.31;5051926;28;20131;-82
2023/08/09 07:52:33;;;;;;;4.30;2.38;;;;;;;18.65;54.52;95460.25;5034668;28;20471;-82
2023/08/09 07:54:58;;;;;;;5.95;3.38;;;;;;;18.85;53.90;95510.63;5050925;28;20040;-82
2023/08/09 07:57:24;;;;;;;8.25;3.20;;;;;;;18.83;54.08;95496.75;5050896;28;20496;-82
2023/08/09 07:59:50;;;;;;;3.15;2.63;;;;;;;18.86;53.74;95494.22;5051281;28;20041;-82
2023/08/09 08:02:16;;;;;;;8.23;2.80;;;;;;;18.99;54.23;95494.38;5052510;28;20032;-82
2023/08/09 08:04:41;;;;;;;7.30;3.85;;;;;;;18.91;53.91;95468.28;5034765;28;20074;-82
2023/08/09 08:07:09;;;;;;;4.00;3.33;;;;;;;19.16;53.26;95491.63;5050716;28;20496;-82
2023/08/09 08:09:40;;;;;;;7.15;2.75;;;;;;;19.04;53.40;95478.84;5051220;28;20049;-82
2023/08/09 08:12:07;;;;;;;6.22;2.70;;;;;;;18.96;52.63;95450.09;5052235;28;20036;-82
2023/08/09 08:14:32;;;;;;;3.92;2.92;;;;;;;19.19;51.96;95482.94;5051004;28;20041;-82
2023/08/09 08:16:58;;;;;;;7.35;3.40;;;;;;;18.77;52.27;95434.31;5052684;28;20037;-82
2023/08/09 08:19:23;;;;;;;10.85;3.30;;;;;;;18.73;52.43;95430.69;5052346;28;20079;-82
2023/08/09 08:21:49;;;;;;;5.25;2.72;;;;;;;19.21;52.33;95489.56;5050739;28;20105;-81
2023/08/09 08:24:14;;;;;;;6.55;2.80;;;;;;;19.18;52.08;95451.78;5053341;28;20029;-81
2023/08/09 08:26:40;;;;;;;5.93;2.85;;;;;;;19.40;52.70;95475.75;5051895;28;20040;-81
2023/08/09 08:29:06;;;;;;;7.20;3.17;;;;;;;19.59;52.30;95486.16;5051931;28;20056;-81
2023/08/09 08:31:32;;;;;;;3.33;2.50;;;;;;;19.44;52.45;95438.25;5052930;28;20029;-81
2023/08/09 08:33:58;;;;;;;7.03;2.38;;;;;;;19.56;52.09;95449.13;5051652;28;20073;-80
2023/08/09 08:36:23;;;;;;;6.68;2.72;;;;;;;19.67;51.05;95461.13;5051369;28;20040;-80
2023/08/09 08:38:53;;;;;;;3.10;2.53;;;;;;;19.32;51.59;95403.16;5053532;28;20067;-80
2023/08/09 08:41:18;;;;;;;3.00;2.20;;;;;;;19.75;51.89;95451.44;5051248;28;20033;-80
2023/08/09 08:43:44;;;;;;;3.00;2.47;;;;;;;20.04;52.26;95479.13;5051868;28;20443;-80
2023/08/09 08:46:14;;;;;;;5.32;2.40;;;;;;;19.98;52.28;95479.66;5053230;28;20025;-80
2023/08/09 08:48:43;;;;;;;5.10;2.30;;;;;;;19.57;52.32;95386.16;5053548;28;20128;-80
2023/08/09 08:51:09;;;;;;;4.75;2.60;;;;;;;20.01;52.54;95441.28;5054330;28;20495;-80
2023/08/09 08:53:35;;;;;;;2.75;2.22;;;;;;;20.06;52.19;95438.44;5053516;28;20036;-80
2023/08/09 08:56:01;;;;;;;4.72;2.40;;;;;;;20.18;51.59;95448.47;5051715;28;20048;-80
2023/08/09 08:58:26;;;;;;;4.10;2.20;;;;;;;20.26;52.37;95458.41;5053323;28;20104;-80
2023/08/09 09:00:53;;;;;;;5.72;2.70;;;;;;;20.33;52.38;95455.97;5051801;28;20479;-80
2023/08/09 09:03:19;;;;;;;5.22;2.70;;;;;;;20.42;51.55;95454.81;5052171;28;20108;-80
2023/08/09 09:05:44;;;;;;;4.40;2.45;;;;;;;20.10;51.45;95403.53;5052502;28;20092;-80
2023/08/09 09:08:13;;;;;;;6.50;3.08;;;;;;;20.15;50.97;95387.97;5053018;28;20075;-80
2023/08/09 09:10:43;;;;;;;5.25;2.30;;;;;;;20.21;51.62;95394.75;5053347;28;20033;-80
2023/08/09 09:13:09;;;;;;;3.33;2.47;;;;;;;20.63;52.02;95441.34;5053921;28;20049;-80
2023/08/09 09:15:35;;;;;;;9.90;2.60;;;;;;;20.74;51.32;95439.81;5052822;28;20025;-80
2023/08/09 09:18:05;;;;;;;2.90;2.40;;;;;;;20.18;50.78;95333.47;5053767;28;20467;-80
2023/08/09 09:20:31;;;;;;;10.77;2.50;;;;;;;20.89;50.55;95419.53;5052378;28;20491;-80
2023/08/09 09:22:56;;;;;;;2.40;2.20;;;;;;;21.09;50.93;95439.47;5053299;28;20511;-80
2023/08/09 09:25:23;;;;;;;2.55;2.17;;;;;;;20.53;50.15;95342.03;5051821;28;20039;-80
2023/08/09 09:27:53;;;;;;;4.55;2.25;;;;;;;21.19;50.08;95425.59;5052918;28;20025;-80
2023/08/09 09:30:24;;;;;;;3.10;2.42;;;;;;;21.23;49.01;95413.00;5051196;28;20523;-80
2023/08/09 09:33:00;;;;;;;6.18;2.40;;;;;;;21.15;47.71;95411.16;5052583;28;20394;-80
2023/08/09 09:35:31;;;;;;;10.25;3.13;;;;;;;21.44;48.67;95429.09;5050605;28;20116;-80
2023/08/09 09:38:02;;;;;;;4.13;3.13;;;;;;;21.52;48.46;95415.50;5051490;28;20041;-80
2023/08/09 09:40:34;;;;;;;4.70;2.40;;;;;;;21.59;48.82;95416.88;5052638;28;20105;-80
2023/08/09 09:43:01;;;;;;;2.30;1.92;;;;;;;21.43;47.81;95366.28;5052605;28;20040;-80
2023/08/09 09:45:28;;;;;;;8.05;2.63;;;;;;;21.77;47.13;95410.09;5051004;28;20051;-80
2023/08/09 09:47:56;;;;;;;5.20;2.00;;;;;;;21.75;47.40;95390.75;5052652;28;20033;-80
2023/08/09 09:50:22;;;;;;;5.25;2.10;;;;;;;21.93;47.01;95392.09;5051602;28;20044;-80
2023/08/09 09:52:54;;;;;;;4.75;2.13;;;;;;;21.97;45.47;95387.59;5050792;28;20033;-80
2023/08/09 09:55:25;;;;;;;6.65;2.20;;;;;;;22.22;46.67;95383.72;5052128;28;20063;-80
2023/08/09 09:57:52;;;;;;;5.60;3.05;;;;;;;22.86;45.63;95388.22;5052542;28;20028;-80
2023/08/09 10:00:20;;;;;;;2.90;2.25;;;;;;;23.84;43.40;95374.81;5051676;28;20036;-80
2023/08/09 10:02:49;;;;;;;3.90;2.05;;;;;;;24.79;41.42;95377.97;5052905;28;20059;-81
2023/08/09 10:05:21;;;;;;;3.83;1.88;;;;;;;25.82;38.58;95390.63;5052335;28;20033;-81
2023/08/09 10:07:49;;;;;;;3.47;2.17;;;;;;;26.66;35.95;95331.16;5056680;28;20567;-81
2023/08/09 10:10:16;;;;;;;5.75;2.78;;;;;;;27.69;33.51;95370.28;5054879;28;20033;-81
2023/08/09 10:12:47;;;;;;;2.55;2.08;;;;;;;28.56;32.08;95343.09;5054153;28;20419;-81
2023/08/09 10:15:14;;;;;;;2.38;1.60;;;;;;;29.05;31.55;95345.22;5054241;28;20107;-81
2023/08/09 10:17:41;;;;;;;3.28;1.70;;;;;;;29.73;31.39;95346.84;5054307;28;20112;-81
2023/08/09 10:20:10;;;;;;;4.32;1.60;;;;;;;30.46;29.30;95359.97;5054254;28;20033;-81
2023/08/09 10:22:36;;;;;;;3.25;1.38;;;;;;;30.94;28.36;95363.69;5056120;28;20068;-81
2023/08/09 10:25:02;;;;;;;4.60;2.67;;;;;;;31.09;27.84;95363.63;5054066;28;20404;-81
2023/08/09 10:28:00;;;;;;;2.65;2.25;;;;;;;31.97;27.20;95354.72;5056386;28;20032;-81
2023/08/09 10:30:31;;;;;;;4.28;2.33;;;;;;;31.55;26.21;95265.41;5054374;28;20191;-81
2023/08/09 10:32:57;;;;;;;2.00;1.63;;;;;;;32.28;25.48;95306.19;5056693;28;20107;-81
2023/08/09 10:35:48;;;;;;;2.72;1.48;;;;;;;32.52;25.19;95343.56;5055821;28;20096;-81
2023/08/09 10:38:15;;;;;;;3.80;1.95;;;;;;;32.55;25.53;95315.28;5055431;28;20396;-81
2023/08/09 10:40:42;;;;;;;3.17;1.50;;;;;;;32.72;25.49;95296.28;5056259;28;20033;-81
2023/08/09 10:43:18;;;;;;;3.38;1.25;;;;;;;32.93;25.48;95335.22;5052676;28;20130;-82
2023/08/09 10:45:45;;;;;;;3.38;1.60;;;;;;;32.90;24.76;95313.28;5054237;28;20021;-81
2023/08/09 10:48:29;;;;;;;2.28;1.88;;;;;;;33.00;24.40;95297.84;5052510;28;20032;-81
2023/08/09 10:51:01;;;;;;;2.92;1.90;;;;;;;32.86;24.97;95312.56;5052769;28;20032;-82
2023/08/09 10:53:27;;;;;;;1.30;1.20;;;;;;;33.12;25.01;95313.72;5052869;28;20131;-82
2023/08/09 10:55:56;;;;;;;2.70;1.58;;;;;;;33.04;25.59;95306.78;5054271;28;20490;-81
2023/08/09 10:58:29;;;;;;;2.83;1.52;;;;;;;33.30;25.03;95311.53;5052669;28;20754;-81
2023/08/09 11:00:55;;;;;;;1.48;1.30;;;;;;;33.36;24.55;95312.59;5052437;28;20029;-81
2023/08/09 11:03:22;;;;;;;1.55;1.45;;;;;;;33.12;24.71;95300.00;5035377;28;20070;-81
2023/08/09 11:05:47;;;;;;;8.60;2.67;;;;;;;32.64;24.26;95272.81;5052772;28;20028;-82
2023/08/09 11:08:18;;;;;;;4.28;1.60;;;;;;;32.12;25.24;95306.75;5051932;28;21053;-81
2023/08/09 11:10:45;;;;;;;1.52;1.40;;;;;;;30.61;26.14;95241.06;5052112;28;20041;-82
2023/08/09 11:13:13;;;;;;;3.95;1.50;;;;;;;30.66;26.37;95298.91;5051994;28;20359;-81
2023/08/09 11:15:45;;;;;;;3.35;1.70;;;;;;;30.46;26.68;95286.84;5051878;28;20399;-80
2023/08/09 11:18:11;;;;;;;2.70;1.67;;;;;;;30.11;27.14;95262.41;5051393;28;20033;-81
2023/08/09 11:20:36;;;;;;;2.42;1.60;;;;;;;30.37;26.75;95272.03;5053164;28;20387;-80
2023/08/09 11:23:04;;;;;;;2.63;1.60;;;;;;;30.23;26.89;95278.38;5052191;28;20506;-81
2023/08/09 11:25:34;;;;;;;5.70;1.83;;;;;;;30.34;26.92;95264.66;5053364;28;20028;-81
2023/08/09 11:28:02;;;;;;;6.47;1.88;;;;;;;30.45;26.38;95263.41;5051888;28;20051;-81
2023/08/09 11:30:32;;;;;;;2.33;1.13;;;;;;;30.44;27.32;95256.38;5052965;28;20057;-81